sensor_id;sensor_type;location;lat;lon;timestamp;temperature;humidity
6641;DHT22;3356;49.360;8.266;2022-10-15T00:00:36;15.60;99.90
6641;DHT22;3356;49.360;8.266;2022-10-15T00:02:37;15.60;99.90
6641;DHT22;3356;49.360;8.266;2022-10-15T00:04:38;15.60;99.90
6641;DHT22;3356;49.360;8.266;2022-10-15T00:06:39;15.60;99.90
6641;DHT22;3356;49.360;8.266;2022-10-15T00:08:41;15.60;99.90
6641;DHT22;3356;49.360;8.266;2022-10-15T00:10:42;15.60;99.90
6641;DHT22;3356;49.360;8.266;2022-10-15T00:12:43;15.60;99.90
6641;DHT22;3356;49.360;8.266;2022-10-15T00:14:44;15.60;99.90
6641;DHT22;3356;49.360;8.266;2022-10-15T00:16:45;15.60;99.90
6641;DHT22;3356;49.360;8.266;2022-10-15T00:18:47;15.50;99.90
6641;DHT22;3356;49.360;8.266;2022-10-15T00:20:48;15.50;99.90
6641;DHT22;3356;49.360;8.266;2022-10-15T00:22:49;15.60;99.90
6641;DHT22;3356;49.360;8.266;2022-10-15T00:24:50;15.50;99.90
6641;DHT22;3356;49.360;8.266;2022-10-15T00:26:51;15.60;99.90
6641;DHT22;3356;49.360;8.266;2022-10-15T00:28:54;15.60;99.90
6641;DHT22;3356;49.360;8.266;2022-10-15T00:31:06;15.50;99.90
6641;DHT22;3356;49.360;8.266;2022-10-15T00:33:07;15.60;99.90
6641;DHT22;3356;49.360;8.266;2022-10-15T00:35:08;15.60;99.90
6641;DHT22;3356;49.360;8.266;2022-10-15T00:37:09;15.60;99.90
6641;DHT22;3356;49.360;8.266;2022-10-15T00:39:10;15.60;99.90
6641;DHT22;3356;49.360;8.266;2022-10-15T00:41:20;15.50;99.90
6641;DHT22;3356;49.360;8.266;2022-10-15T00:48:57;15.60;99.90
6641;DHT22;3356;49.360;8.266;2022-10-15T00:51:01;15.50;99.90
6641;DHT22;3356;49.360;8.266;2022-10-15T00:53:07;15.50;99.90
6641;DHT22;3356;49.360;8.266;2022-10-15T00:55:16;15.60;99.90
6641;DHT22;3356;49.360;8.266;2022-10-15T00:57:18;15.60;99.90
6641;DHT22;3356;49.360;8.266;2022-10-15T00:59:21;15.50;99.90
6641;DHT22;3356;49.360;8.266;2022-10-15T01:01:23;15.60;99.90
6641;DHT22;3356;49.360;8.266;2022-10-15T01:03:25;15.60;99.90
6641;DHT22;3356;49.360;8.266;2022-10-15T01:05:27;15.60;99.90
6641;DHT22;3356;49.360;8.266;2022-10-15T01:07:28;15.60;99.90
6641;DHT22;3356;49.360;8.266;2022-10-15T01:09:29;15.60;99.90
6641;DHT22;3356;49.360;8.266;2022-10-15T01:11:38;15.60;99.90
6641;DHT22;3356;49.360;8.266;2022-10-15T01:14:14;15.60;99.90
6641;DHT22;3356;49.360;8.266;2022-10-15T01:19:06;15.60;99.90
6641;DHT22;3356;49.360;8.266;2022-10-15T01:23:31;15.60;99.90
6641;DHT22;3356;49.360;8.266;2022-10-15T01:30:37;15.60;99.90
6641;DHT22;3356;49.360;8.266;2022-10-15T01:32:50;15.60;99.90
6641;DHT22;3356;49.360;8.266;2022-10-15T01:37:10;15.60;99.90
6641;DHT22;3356;49.360;8.266;2022-10-15T01:39:32;15.50;99.90
6641;DHT22;3356;49.360;8.266;2022-10-15T01:41:39;15.60;99.90
6641;DHT22;3356;49.360;8.266;2022-10-15T01:44:10;15.60;99.90
6641;DHT22;3356;49.360;8.266;2022-10-15T01:46:26;15.60;99.90
6641;DHT22;3356;49.360;8.266;2022-10-15T01:48:39;15.60;99.90
6641;DHT22;3356;49.360;8.266;2022-10-15T01:50:52;15.60;99.90
6641;DHT22;3356;49.360;8.266;2022-10-15T01:52:56;15.60;99.90
6641;DHT22;3356;49.360;8.266;2022-10-15T01:54:59;15.60;99.90
6641;DHT22;3356;49.360;8.266;2022-10-15T01:57:02;15.60;99.90
6641;DHT22;3356;49.360;8.266;2022-10-15T01:59:05;15.60;99.90
6641;DHT22;3356;49.360;8.266;2022-10-15T02:01:08;15.60;99.90
6641;DHT22;3356;49.360;8.266;2022-10-15T02:03:10;15.60;99.90
6641;DHT22;3356;49.360;8.266;2022-10-15T02:05:23;15.70;99.90
6641;DHT22;3356;49.360;8.266;2022-10-15T02:13:36;15.60;99.90
6641;DHT22;3356;49.360;8.266;2022-10-15T02:18:15;15.60;99.90
6641;DHT22;3356;49.360;8.266;2022-10-15T02:20:31;15.60;99.90
6641;DHT22;3356;49.360;8.266;2022-10-15T02:22:40;15.60;99.90
6641;DHT22;3356;49.360;8.266;2022-10-15T02:25:15;15.60;99.90
6641;DHT22;3356;49.360;8.266;2022-10-15T02:27:20;15.70;99.90
6641;DHT22;3356;49.360;8.266;2022-10-15T02:29:22;15.60;99.90
6641;DHT22;3356;49.360;8.266;2022-10-15T02:31:29;15.70;99.90
6641;DHT22;3356;49.360;8.266;2022-10-15T02:33:32;15.70;99.90
6641;DHT22;3356;49.360;8.266;2022-10-15T02:35:36;15.70;99.90
6641;DHT22;3356;49.360;8.266;2022-10-15T02:37:45;15.70;99.90
6641;DHT22;3356;49.360;8.266;2022-10-15T02:39:50;15.60;99.90
6641;DHT22;3356;49.360;8.266;2022-10-15T02:41:52;15.60;99.90
6641;DHT22;3356;49.360;8.266;2022-10-15T02:43:54;15.60;99.90
6641;DHT22;3356;49.360;8.266;2022-10-15T02:45:55;15.70;99.90
6641;DHT22;3356;49.360;8.266;2022-10-15T02:47:56;15.60;99.90
6641;DHT22;3356;49.360;8.266;2022-10-15T02:49:58;15.70;99.90
6641;DHT22;3356;49.360;8.266;2022-10-15T02:52:00;15.60;99.90
6641;DHT22;3356;49.360;8.266;2022-10-15T02:54:02;15.60;99.90
6641;DHT22;3356;49.360;8.266;2022-10-15T02:56:04;15.70;99.90
6641;DHT22;3356;49.360;8.266;2022-10-15T02:58:05;15.70;99.90
6641;DHT22;3356;49.360;8.266;2022-10-15T03:00:07;15.70;99.90
6641;DHT22;3356;49.360;8.266;2022-10-15T03:02:09;15.70;99.90
6641;DHT22;3356;49.360;8.266;2022-10-15T03:04:10;15.70;99.90
6641;DHT22;3356;49.360;8.266;2022-10-15T03:06:12;15.70;99.90
6641;DHT22;3356;49.360;8.266;2022-10-15T03:08:14;15.70;99.90
6641;DHT22;3356;49.360;8.266;2022-10-15T03:10:15;15.70;99.90
6641;DHT22;3356;49.360;8.266;2022-10-15T03:12:17;15.70;99.90
6641;DHT22;3356;49.360;8.266;2022-10-15T03:14:23;15.70;99.90
6641;DHT22;3356;49.360;8.266;2022-10-15T03:16:24;15.70;99.90
6641;DHT22;3356;49.360;8.266;2022-10-15T03:18:25;15.80;99.90
6641;DHT22;3356;49.360;8.266;2022-10-15T03:20:27;15.70;99.90
6641;DHT22;3356;49.360;8.266;2022-10-15T03:22:28;15.80;99.90
6641;DHT22;3356;49.360;8.266;2022-10-15T03:24:30;15.80;99.90
6641;DHT22;3356;49.360;8.266;2022-10-15T03:26:31;15.80;99.90
6641;DHT22;3356;49.360;8.266;2022-10-15T03:28:32;15.80;99.90
6641;DHT22;3356;49.360;8.266;2022-10-15T03:30:34;15.80;99.90
6641;DHT22;3356;49.360;8.266;2022-10-15T03:32:35;15.80;99.90
6641;DHT22;3356;49.360;8.266;2022-10-15T03:34:37;15.80;99.90
6641;DHT22;3356;49.360;8.266;2022-10-15T03:36:38;15.80;99.90
6641;DHT22;3356;49.360;8.266;2022-10-15T03:38:42;15.80;99.90
6641;DHT22;3356;49.360;8.266;2022-10-15T03:40:47;15.90;99.90
6641;DHT22;3356;49.360;8.266;2022-10-15T03:42:57;15.80;99.90
6641;DHT22;3356;49.360;8.266;2022-10-15T03:44:59;15.80;99.90
6641;DHT22;3356;49.360;8.266;2022-10-15T03:47:00;15.80;99.90
6641;DHT22;3356;49.360;8.266;2022-10-15T03:49:12;15.80;99.90
6641;DHT22;3356;49.360;8.266;2022-10-15T03:51:13;15.80;99.90
6641;DHT22;3356;49.360;8.266;2022-10-15T03:53:16;15.80;99.90
6641;DHT22;3356;49.360;8.266;2022-10-15T03:55:17;15.90;99.90
6641;DHT22;3356;49.360;8.266;2022-10-15T03:57:20;15.90;99.90
6641;DHT22;3356;49.360;8.266;2022-10-15T03:59:27;15.90;99.90
6641;DHT22;3356;49.360;8.266;2022-10-15T04:01:34;15.90;99.90
6641;DHT22;3356;49.360;8.266;2022-10-15T04:03:37;15.90;99.90
6641;DHT22;3356;49.360;8.266;2022-10-15T04:05:38;15.90;99.90
6641;DHT22;3356;49.360;8.266;2022-10-15T04:07:42;15.90;99.90
6641;DHT22;3356;49.360;8.266;2022-10-15T04:09:48;15.90;99.90
6641;DHT22;3356;49.360;8.266;2022-10-15T04:12:00;15.90;99.90
6641;DHT22;3356;49.360;8.266;2022-10-15T04:14:01;15.90;99.90
6641;DHT22;3356;49.360;8.266;2022-10-15T04:16:05;15.90;99.90
6641;DHT22;3356;49.360;8.266;2022-10-15T04:18:06;15.90;99.90
6641;DHT22;3356;49.360;8.266;2022-10-15T04:20:08;15.90;99.90
6641;DHT22;3356;49.360;8.266;2022-10-15T04:22:09;15.90;99.90
6641;DHT22;3356;49.360;8.266;2022-10-15T04:24:16;15.90;99.90
6641;DHT22;3356;49.360;8.266;2022-10-15T04:26:18;15.90;99.90
6641;DHT22;3356;49.360;8.266;2022-10-15T04:28:19;15.90;99.90
6641;DHT22;3356;49.360;8.266;2022-10-15T04:30:21;15.90;99.90
6641;DHT22;3356;49.360;8.266;2022-10-15T04:32:28;15.90;99.90
6641;DHT22;3356;49.360;8.266;2022-10-15T04:34:30;15.90;99.90
6641;DHT22;3356;49.360;8.266;2022-10-15T04:36:31;15.90;99.90
6641;DHT22;3356;49.360;8.266;2022-10-15T04:38:38;15.90;99.90
6641;DHT22;3356;49.360;8.266;2022-10-15T04:40:40;15.90;99.90
6641;DHT22;3356;49.360;8.266;2022-10-15T04:42:41;16.00;99.90
6641;DHT22;3356;49.360;8.266;2022-10-15T04:44:42;16.00;99.90
6641;DHT22;3356;49.360;8.266;2022-10-15T04:46:43;16.00;99.90
6641;DHT22;3356;49.360;8.266;2022-10-15T04:49:02;16.00;99.90
6641;DHT22;3356;49.360;8.266;2022-10-15T04:51:21;15.90;99.90
6641;DHT22;3356;49.360;8.266;2022-10-15T04:53:54;16.00;99.90
6641;DHT22;3356;49.360;8.266;2022-10-15T04:56:03;16.00;99.90
6641;DHT22;3356;49.360;8.266;2022-10-15T04:58:04;16.00;99.90
6641;DHT22;3356;49.360;8.266;2022-10-15T05:00:07;16.00;99.90
6641;DHT22;3356;49.360;8.266;2022-10-15T05:02:08;15.90;99.90
6641;DHT22;3356;49.360;8.266;2022-10-15T05:04:11;16.00;99.90
6641;DHT22;3356;49.360;8.266;2022-10-15T05:06:16;15.90;99.90
6641;DHT22;3356;49.360;8.266;2022-10-15T05:08:18;15.90;99.90
6641;DHT22;3356;49.360;8.266;2022-10-15T05:10:51;15.90;99.90
6641;DHT22;3356;49.360;8.266;2022-10-15T05:12:53;15.90;99.90
6641;DHT22;3356;49.360;8.266;2022-10-15T05:15:02;15.90;99.90
6641;DHT22;3356;49.360;8.266;2022-10-15T05:17:03;15.90;99.90
6641;DHT22;3356;49.360;8.266;2022-10-15T05:19:10;16.00;99.90
6641;DHT22;3356;49.360;8.266;2022-10-15T05:21:15;16.00;99.90
6641;DHT22;3356;49.360;8.266;2022-10-15T05:23:20;16.00;99.90
6641;DHT22;3356;49.360;8.266;2022-10-15T05:25:37;16.00;99.90
6641;DHT22;3356;49.360;8.266;2022-10-15T05:27:38;16.00;99.90
6641;DHT22;3356;49.360;8.266;2022-10-15T05:29:41;16.00;99.90
6641;DHT22;3356;49.360;8.266;2022-10-15T05:31:44;16.00;99.90
6641;DHT22;3356;49.360;8.266;2022-10-15T05:33:53;16.00;99.90
6641;DHT22;3356;49.360;8.266;2022-10-15T05:38:13;16.00;99.90
6641;DHT22;3356;49.360;8.266;2022-10-15T05:40:14;16.00;99.90
6641;DHT22;3356;49.360;8.266;2022-10-15T05:42:15;16.00;99.90
6641;DHT22;3356;49.360;8.266;2022-10-15T05:44:24;16.00;99.90
6641;DHT22;3356;49.360;8.266;2022-10-15T05:46:25;16.00;99.90
6641;DHT22;3356;49.360;8.266;2022-10-15T05:48:27;16.00;99.90
6641;DHT22;3356;49.360;8.266;2022-10-15T05:50:28;16.00;99.90
6641;DHT22;3356;49.360;8.266;2022-10-15T05:52:31;16.00;99.90
6641;DHT22;3356;49.360;8.266;2022-10-15T05:54:35;16.00;99.90
6641;DHT22;3356;49.360;8.266;2022-10-15T05:56:37;16.00;99.90
6641;DHT22;3356;49.360;8.266;2022-10-15T05:58:38;16.00;99.90
6641;DHT22;3356;49.360;8.266;2022-10-15T06:00:39;16.00;99.90
6641;DHT22;3356;49.360;8.266;2022-10-15T06:02:40;16.00;99.90
6641;DHT22;3356;49.360;8.266;2022-10-15T06:04:41;16.00;99.90
6641;DHT22;3356;49.360;8.266;2022-10-15T06:06:43;16.00;99.90
6641;DHT22;3356;49.360;8.266;2022-10-15T06:08:45;16.00;99.90
6641;DHT22;3356;49.360;8.266;2022-10-15T06:10:46;16.00;99.90
6641;DHT22;3356;49.360;8.266;2022-10-15T06:12:49;16.00;99.90
6641;DHT22;3356;49.360;8.266;2022-10-15T06:14:50;16.00;99.90
6641;DHT22;3356;49.360;8.266;2022-10-15T06:16:51;16.00;99.90
6641;DHT22;3356;49.360;8.266;2022-10-15T06:18:54;16.00;99.90
6641;DHT22;3356;49.360;8.266;2022-10-15T06:20:55;16.00;99.90
6641;DHT22;3356;49.360;8.266;2022-10-15T06:23:00;16.00;99.90
6641;DHT22;3356;49.360;8.266;2022-10-15T06:25:01;16.00;99.90
6641;DHT22;3356;49.360;8.266;2022-10-15T06:27:02;16.00;99.90
6641;DHT22;3356;49.360;8.266;2022-10-15T06:29:03;16.00;99.90
6641;DHT22;3356;49.360;8.266;2022-10-15T06:31:05;16.00;99.90
6641;DHT22;3356;49.360;8.266;2022-10-15T06:33:06;16.00;99.90
6641;DHT22;3356;49.360;8.266;2022-10-15T06:35:08;16.00;99.90
6641;DHT22;3356;49.360;8.266;2022-10-15T06:37:09;16.00;99.90
6641;DHT22;3356;49.360;8.266;2022-10-15T06:39:10;16.00;99.90
6641;DHT22;3356;49.360;8.266;2022-10-15T06:41:13;16.10;99.90
6641;DHT22;3356;49.360;8.266;2022-10-15T06:43:14;16.00;99.90
6641;DHT22;3356;49.360;8.266;2022-10-15T06:45:15;16.10;99.90
6641;DHT22;3356;49.360;8.266;2022-10-15T06:47:16;16.00;99.90
6641;DHT22;3356;49.360;8.266;2022-10-15T06:49:21;16.00;99.90
6641;DHT22;3356;49.360;8.266;2022-10-15T06:51:22;16.00;99.90
6641;DHT22;3356;49.360;8.266;2022-10-15T06:53:24;16.00;99.90
6641;DHT22;3356;49.360;8.266;2022-10-15T06:55:25;16.00;99.90
6641;DHT22;3356;49.360;8.266;2022-10-15T06:57:29;16.00;99.90
6641;DHT22;3356;49.360;8.266;2022-10-15T06:59:30;16.00;99.90
6641;DHT22;3356;49.360;8.266;2022-10-15T07:01:32;16.10;99.90
6641;DHT22;3356;49.360;8.266;2022-10-15T07:03:33;16.10;99.90
6641;DHT22;3356;49.360;8.266;2022-10-15T07:05:34;16.10;99.90
6641;DHT22;3356;49.360;8.266;2022-10-15T07:07:35;16.10;99.90
6641;DHT22;3356;49.360;8.266;2022-10-15T07:09:36;16.10;99.90
6641;DHT22;3356;49.360;8.266;2022-10-15T07:11:38;16.10;99.90
6641;DHT22;3356;49.360;8.266;2022-10-15T07:13:39;16.10;99.90
6641;DHT22;3356;49.360;8.266;2022-10-15T07:15:41;16.10;99.90
6641;DHT22;3356;49.360;8.266;2022-10-15T07:17:52;16.10;99.90
6641;DHT22;3356;49.360;8.266;2022-10-15T07:19:56;16.10;99.90
6641;DHT22;3356;49.360;8.266;2022-10-15T07:21:57;16.10;99.90
6641;DHT22;3356;49.360;8.266;2022-10-15T07:23:58;16.10;99.90
6641;DHT22;3356;49.360;8.266;2022-10-15T07:30:05;16.20;99.90
6641;DHT22;3356;49.360;8.266;2022-10-15T07:32:06;16.10;99.90
6641;DHT22;3356;49.360;8.266;2022-10-15T07:34:08;16.10;99.90
6641;DHT22;3356;49.360;8.266;2022-10-15T07:36:10;16.10;99.90
6641;DHT22;3356;49.360;8.266;2022-10-15T07:38:12;16.10;99.90
6641;DHT22;3356;49.360;8.266;2022-10-15T07:40:13;16.20;99.90
6641;DHT22;3356;49.360;8.266;2022-10-15T07:42:16;16.20;99.90
6641;DHT22;3356;49.360;8.266;2022-10-15T07:44:17;16.20;99.90
6641;DHT22;3356;49.360;8.266;2022-10-15T07:46:18;16.20;99.90
6641;DHT22;3356;49.360;8.266;2022-10-15T07:48:19;16.20;99.90
6641;DHT22;3356;49.360;8.266;2022-10-15T07:50:21;16.20;99.90
6641;DHT22;3356;49.360;8.266;2022-10-15T07:52:23;16.20;99.90
6641;DHT22;3356;49.360;8.266;2022-10-15T07:54:24;16.20;99.90
6641;DHT22;3356;49.360;8.266;2022-10-15T07:56:25;16.30;99.90
6641;DHT22;3356;49.360;8.266;2022-10-15T07:58:26;16.30;99.90
6641;DHT22;3356;49.360;8.266;2022-10-15T08:00:32;16.30;99.90
6641;DHT22;3356;49.360;8.266;2022-10-15T08:02:33;16.40;99.90
6641;DHT22;3356;49.360;8.266;2022-10-15T08:04:34;16.40;99.90
6641;DHT22;3356;49.360;8.266;2022-10-15T08:06:35;16.40;99.90
6641;DHT22;3356;49.360;8.266;2022-10-15T08:08:37;16.40;99.90
6641;DHT22;3356;49.360;8.266;2022-10-15T08:10:38;16.40;99.90
6641;DHT22;3356;49.360;8.266;2022-10-15T08:12:39;16.40;99.90
6641;DHT22;3356;49.360;8.266;2022-10-15T08:14:40;16.40;99.90
6641;DHT22;3356;49.360;8.266;2022-10-15T08:16:41;16.50;99.90
6641;DHT22;3356;49.360;8.266;2022-10-15T08:18:42;16.50;99.90
6641;DHT22;3356;49.360;8.266;2022-10-15T08:20:44;16.60;99.90
6641;DHT22;3356;49.360;8.266;2022-10-15T08:22:45;16.70;99.90
6641;DHT22;3356;49.360;8.266;2022-10-15T08:24:46;16.80;99.90
6641;DHT22;3356;49.360;8.266;2022-10-15T08:26:47;16.80;99.90
6641;DHT22;3356;49.360;8.266;2022-10-15T08:28:49;16.80;99.90
6641;DHT22;3356;49.360;8.266;2022-10-15T08:30:51;16.80;99.90
6641;DHT22;3356;49.360;8.266;2022-10-15T08:32:52;16.90;99.90
6641;DHT22;3356;49.360;8.266;2022-10-15T08:34:54;17.00;99.90
6641;DHT22;3356;49.360;8.266;2022-10-15T08:36:55;17.10;99.90
6641;DHT22;3356;49.360;8.266;2022-10-15T08:38:56;17.40;99.90
6641;DHT22;3356;49.360;8.266;2022-10-15T08:40:59;17.70;99.90
6641;DHT22;3356;49.360;8.266;2022-10-15T08:43:02;17.90;99.90
6641;DHT22;3356;49.360;8.266;2022-10-15T08:45:17;18.20;99.90
6641;DHT22;3356;49.360;8.266;2022-10-15T08:48:05;18.40;99.90
6641;DHT22;3356;49.360;8.266;2022-10-15T08:50:32;18.50;99.90
6641;DHT22;3356;49.360;8.266;2022-10-15T08:54:36;18.80;99.90
6641;DHT22;3356;49.360;8.266;2022-10-15T08:56:40;18.80;99.90
6641;DHT22;3356;49.360;8.266;2022-10-15T08:58:56;19.00;99.90
6641;DHT22;3356;49.360;8.266;2022-10-15T09:01:04;18.90;99.90
6641;DHT22;3356;49.360;8.266;2022-10-15T09:05:29;18.90;99.90
6641;DHT22;3356;49.360;8.266;2022-10-15T09:07:44;19.10;99.90
6641;DHT22;3356;49.360;8.266;2022-10-15T09:09:52;19.20;99.90
6641;DHT22;3356;49.360;8.266;2022-10-15T09:14:33;19.10;99.90
6641;DHT22;3356;49.360;8.266;2022-10-15T09:16:37;18.90;99.90
6641;DHT22;3356;49.360;8.266;2022-10-15T09:18:47;18.80;99.90
6641;DHT22;3356;49.360;8.266;2022-10-15T09:20:49;18.80;99.90
6641;DHT22;3356;49.360;8.266;2022-10-15T09:22:50;18.90;99.90
6641;DHT22;3356;49.360;8.266;2022-10-15T09:24:52;18.70;99.90
6641;DHT22;3356;49.360;8.266;2022-10-15T09:27:11;18.70;99.90
6641;DHT22;3356;49.360;8.266;2022-10-15T09:29:27;18.70;99.90
6641;DHT22;3356;49.360;8.266;2022-10-15T09:31:43;18.70;99.90
6641;DHT22;3356;49.360;8.266;2022-10-15T09:35:59;18.70;99.90
6641;DHT22;3356;49.360;8.266;2022-10-15T09:38:30;18.70;99.90
6641;DHT22;3356;49.360;8.266;2022-10-15T09:42:42;18.80;99.90
6641;DHT22;3356;49.360;8.266;2022-10-15T09:44:48;18.80;99.90
6641;DHT22;3356;49.360;8.266;2022-10-15T09:46:50;18.80;99.90
6641;DHT22;3356;49.360;8.266;2022-10-15T09:56:45;19.00;99.90
6641;DHT22;3356;49.360;8.266;2022-10-15T09:58:53;18.80;99.90
6641;DHT22;3356;49.360;8.266;2022-10-15T10:01:03;18.80;99.90
6641;DHT22;3356;49.360;8.266;2022-10-15T10:03:14;18.80;99.90
6641;DHT22;3356;49.360;8.266;2022-10-15T10:05:36;18.70;99.90
6641;DHT22;3356;49.360;8.266;2022-10-15T10:07:38;18.50;99.90
6641;DHT22;3356;49.360;8.266;2022-10-15T10:09:56;18.50;99.90
6641;DHT22;3356;49.360;8.266;2022-10-15T10:12:27;18.60;99.90
6641;DHT22;3356;49.360;8.266;2022-10-15T10:17:18;18.70;99.90
6641;DHT22;3356;49.360;8.266;2022-10-15T10:19:19;18.90;99.90
6641;DHT22;3356;49.360;8.266;2022-10-15T10:21:29;18.80;99.90
6641;DHT22;3356;49.360;8.266;2022-10-15T10:23:35;18.70;99.90
6641;DHT22;3356;49.360;8.266;2022-10-15T10:25:40;18.70;99.90
6641;DHT22;3356;49.360;8.266;2022-10-15T10:27:44;18.60;99.90
6641;DHT22;3356;49.360;8.266;2022-10-15T10:29:53;18.60;99.90
6641;DHT22;3356;49.360;8.266;2022-10-15T10:31:56;18.70;99.90
6641;DHT22;3356;49.360;8.266;2022-10-15T10:34:05;18.80;99.90
6641;DHT22;3356;49.360;8.266;2022-10-15T10:36:18;18.90;99.90
6641;DHT22;3356;49.360;8.266;2022-10-15T10:38:38;18.90;99.90
6641;DHT22;3356;49.360;8.266;2022-10-15T10:40:40;18.90;99.90
6641;DHT22;3356;49.360;8.266;2022-10-15T10:42:45;19.00;99.90
6641;DHT22;3356;49.360;8.266;2022-10-15T10:44:48;19.20;99.90
6641;DHT22;3356;49.360;8.266;2022-10-15T10:49:36;19.60;99.90
6641;DHT22;3356;49.360;8.266;2022-10-15T10:51:48;19.70;99.90
6641;DHT22;3356;49.360;8.266;2022-10-15T10:53:57;19.70;99.90
6641;DHT22;3356;49.360;8.266;2022-10-15T10:56:01;19.70;99.90
6641;DHT22;3356;49.360;8.266;2022-10-15T10:58:04;19.60;99.90
6641;DHT22;3356;49.360;8.266;2022-10-15T11:00:06;19.60;99.90
6641;DHT22;3356;49.360;8.266;2022-10-15T11:02:10;19.60;99.90
6641;DHT22;3356;49.360;8.266;2022-10-15T11:04:26;19.80;99.90
6641;DHT22;3356;49.360;8.266;2022-10-15T11:16:12;20.30;99.90
6641;DHT22;3356;49.360;8.266;2022-10-15T11:21:06;20.60;99.90
6641;DHT22;3356;49.360;8.266;2022-10-15T11:23:37;21.70;99.90
6641;DHT22;3356;49.360;8.266;2022-10-15T11:30:20;20.50;99.90
6641;DHT22;3356;49.360;8.266;2022-10-15T11:32:56;20.30;99.90
6641;DHT22;3356;49.360;8.266;2022-10-15T11:41:36;20.10;99.90
6641;DHT22;3356;49.360;8.266;2022-10-15T11:43:57;20.10;99.90
6641;DHT22;3356;49.360;8.266;2022-10-15T11:46:21;20.10;99.90
6641;DHT22;3356;49.360;8.266;2022-10-15T11:51:01;20.00;99.90
6641;DHT22;3356;49.360;8.266;2022-10-15T11:57:16;20.20;99.90
6641;DHT22;3356;49.360;8.266;2022-10-15T11:59:36;20.20;99.90
6641;DHT22;3356;49.360;8.266;2022-10-15T12:01:50;20.40;99.90
6641;DHT22;3356;49.360;8.266;2022-10-15T12:03:59;20.40;99.90
6641;DHT22;3356;49.360;8.266;2022-10-15T12:06:09;20.20;99.90
6641;DHT22;3356;49.360;8.266;2022-10-15T12:08:15;20.30;99.90
6641;DHT22;3356;49.360;8.266;2022-10-15T12:12:56;20.40;99.90
6641;DHT22;3356;49.360;8.266;2022-10-15T12:19:54;20.10;99.90
6641;DHT22;3356;49.360;8.266;2022-10-15T12:23:57;20.10;99.90
6641;DHT22;3356;49.360;8.266;2022-10-15T12:25:59;20.20;99.90
6641;DHT22;3356;49.360;8.266;2022-10-15T12:28:13;20.20;99.90
6641;DHT22;3356;49.360;8.266;2022-10-15T12:30:20;20.30;99.90
6641;DHT22;3356;49.360;8.266;2022-10-15T12:32:25;20.30;99.90
6641;DHT22;3356;49.360;8.266;2022-10-15T12:34:29;20.40;99.90
6641;DHT22;3356;49.360;8.266;2022-10-15T12:36:31;20.50;99.90
6641;DHT22;3356;49.360;8.266;2022-10-15T12:38:38;20.50;99.90
6641;DHT22;3356;49.360;8.266;2022-10-15T12:40:39;20.50;99.90
6641;DHT22;3356;49.360;8.266;2022-10-15T12:42:40;20.40;99.90
6641;DHT22;3356;49.360;8.266;2022-10-15T12:44:47;20.30;99.90
6641;DHT22;3356;49.360;8.266;2022-10-15T12:46:49;20.20;99.90
6641;DHT22;3356;49.360;8.266;2022-10-15T12:48:50;20.10;99.90
6641;DHT22;3356;49.360;8.266;2022-10-15T12:53:30;20.00;99.90
6641;DHT22;3356;49.360;8.266;2022-10-15T12:55:36;19.80;99.90
6641;DHT22;3356;49.360;8.266;2022-10-15T13:05:51;19.50;99.90
6641;DHT22;3356;49.360;8.266;2022-10-15T13:08:11;19.50;99.90
6641;DHT22;3356;49.360;8.266;2022-10-15T13:10:19;19.60;99.90
6641;DHT22;3356;49.360;8.266;2022-10-15T13:12:25;19.60;99.90
6641;DHT22;3356;49.360;8.266;2022-10-15T13:16:34;19.70;99.90
6641;DHT22;3356;49.360;8.266;2022-10-15T13:18:35;19.80;99.90
6641;DHT22;3356;49.360;8.266;2022-10-15T13:20:41;19.90;99.90
6641;DHT22;3356;49.360;8.266;2022-10-15T13:22:43;19.90;99.90
6641;DHT22;3356;49.360;8.266;2022-10-15T13:24:44;19.80;99.90
6641;DHT22;3356;49.360;8.266;2022-10-15T13:26:49;19.90;99.90
6641;DHT22;3356;49.360;8.266;2022-10-15T13:28:52;19.80;99.90
6641;DHT22;3356;49.360;8.266;2022-10-15T13:30:55;19.80;99.90
6641;DHT22;3356;49.360;8.266;2022-10-15T13:32:56;19.90;99.90
6641;DHT22;3356;49.360;8.266;2022-10-15T13:34:59;19.80;99.90
6641;DHT22;3356;49.360;8.266;2022-10-15T13:37:02;19.90;99.90
6641;DHT22;3356;49.360;8.266;2022-10-15T13:39:06;19.70;99.90
6641;DHT22;3356;49.360;8.266;2022-10-15T13:41:08;19.50;99.90
6641;DHT22;3356;49.360;8.266;2022-10-15T13:43:22;19.60;99.90
6641;DHT22;3356;49.360;8.266;2022-10-15T13:45:23;19.60;99.90
6641;DHT22;3356;49.360;8.266;2022-10-15T13:47:30;19.40;99.90
6641;DHT22;3356;49.360;8.266;2022-10-15T13:49:31;19.40;99.90
6641;DHT22;3356;49.360;8.266;2022-10-15T13:51:43;19.30;99.90
6641;DHT22;3356;49.360;8.266;2022-10-15T13:53:45;19.20;99.90
6641;DHT22;3356;49.360;8.266;2022-10-15T13:55:49;19.40;99.90
6641;DHT22;3356;49.360;8.266;2022-10-15T13:57:57;19.50;99.90
6641;DHT22;3356;49.360;8.266;2022-10-15T13:59:58;19.50;99.90
6641;DHT22;3356;49.360;8.266;2022-10-15T14:02:01;19.40;99.90
6641;DHT22;3356;49.360;8.266;2022-10-15T14:04:14;19.50;99.90
6641;DHT22;3356;49.360;8.266;2022-10-15T14:08:27;19.60;99.90
6641;DHT22;3356;49.360;8.266;2022-10-15T14:10:28;19.50;99.90
6641;DHT22;3356;49.360;8.266;2022-10-15T14:12:29;19.40;99.90
6641;DHT22;3356;49.360;8.266;2022-10-15T14:14:36;19.50;99.90
6641;DHT22;3356;49.360;8.266;2022-10-15T14:16:45;19.50;99.90
6641;DHT22;3356;49.360;8.266;2022-10-15T14:18:54;19.50;99.90
6641;DHT22;3356;49.360;8.266;2022-10-15T14:20:56;19.30;99.90
6641;DHT22;3356;49.360;8.266;2022-10-15T14:22:57;19.30;99.90
6641;DHT22;3356;49.360;8.266;2022-10-15T14:24:59;19.20;99.90
6641;DHT22;3356;49.360;8.266;2022-10-15T14:27:27;19.30;99.90
6641;DHT22;3356;49.360;8.266;2022-10-15T14:29:38;19.20;99.90
6641;DHT22;3356;49.360;8.266;2022-10-15T14:31:45;19.20;99.90
6641;DHT22;3356;49.360;8.266;2022-10-15T14:33:47;19.10;99.90
6641;DHT22;3356;49.360;8.266;2022-10-15T14:36:02;19.20;99.90
6641;DHT22;3356;49.360;8.266;2022-10-15T14:42:30;19.10;99.90
6641;DHT22;3356;49.360;8.266;2022-10-15T14:44:46;19.00;99.90
6641;DHT22;3356;49.360;8.266;2022-10-15T14:46:50;19.10;99.90
6641;DHT22;3356;49.360;8.266;2022-10-15T14:48:52;19.10;99.90
6641;DHT22;3356;49.360;8.266;2022-10-15T14:50:57;19.10;99.90
6641;DHT22;3356;49.360;8.266;2022-10-15T14:53:04;19.00;99.90
6641;DHT22;3356;49.360;8.266;2022-10-15T14:57:33;19.20;99.90
6641;DHT22;3356;49.360;8.266;2022-10-15T14:59:36;19.20;99.90
6641;DHT22;3356;49.360;8.266;2022-10-15T15:01:38;19.20;99.90
6641;DHT22;3356;49.360;8.266;2022-10-15T15:03:42;19.10;99.90
6641;DHT22;3356;49.360;8.266;2022-10-15T15:05:49;19.10;99.90
6641;DHT22;3356;49.360;8.266;2022-10-15T15:07:54;19.00;99.90
6641;DHT22;3356;49.360;8.266;2022-10-15T15:09:56;19.00;99.90
6641;DHT22;3356;49.360;8.266;2022-10-15T15:11:58;18.80;99.90
6641;DHT22;3356;49.360;8.266;2022-10-15T15:13:59;18.80;99.90
6641;DHT22;3356;49.360;8.266;2022-10-15T15:16:01;18.90;99.90
6641;DHT22;3356;49.360;8.266;2022-10-15T15:18:03;18.90;99.90
6641;DHT22;3356;49.360;8.266;2022-10-15T15:20:04;19.00;99.90
6641;DHT22;3356;49.360;8.266;2022-10-15T15:22:11;18.90;99.90
6641;DHT22;3356;49.360;8.266;2022-10-15T15:24:14;19.00;99.90
6641;DHT22;3356;49.360;8.266;2022-10-15T15:26:15;18.90;99.90
6641;DHT22;3356;49.360;8.266;2022-10-15T15:28:18;18.90;99.90
6641;DHT22;3356;49.360;8.266;2022-10-15T15:30:24;18.90;99.90
6641;DHT22;3356;49.360;8.266;2022-10-15T15:32:26;18.80;99.90
6641;DHT22;3356;49.360;8.266;2022-10-15T15:34:27;18.70;99.90
6641;DHT22;3356;49.360;8.266;2022-10-15T15:36:28;18.70;99.90